sensor_id;sensor_type;location;lat;lon;timestamp;pressure;altitude;pressure_sealevel;temperature;humidity
43681;BME280;29281;50.356;30.894;2023-05-11T00:00:25;101044.51;;;9.15;42.18
43681;BME280;29281;50.356;30.894;2023-05-11T00:01:29;101041.47;;;9.23;42.02
43681;BME280;29281;50.356;30.894;2023-05-11T00:02:32;101046.91;;;9.20;42.00
43681;BME280;29281;50.356;30.894;2023-05-11T00:03:35;101034.23;;;9.26;43.70
43681;BME280;29281;50.356;30.894;2023-05-11T00:04:41;101030.65;;;9.27;43.71
43681;BME280;29281;50.356;30.894;2023-05-11T00:05:47;101036.48;;;9.34;44.27
43681;BME280;29281;50.356;30.894;2023-05-11T00:06:50;101029.58;;;9.31;42.68
43681;BME280;29281;50.356;30.894;2023-05-11T00:07:54;101041.03;;;9.32;42.31
43681;BME280;29281;50.356;30.894;2023-05-11T00:08:57;101034.88;;;9.31;42.29
43681;BME280;29281;50.356;30.894;2023-05-11T00:10:01;101043.69;;;9.32;42.20
43681;BME280;29281;50.356;30.894;2023-05-11T00:11:09;101037.59;;;9.30;42.15
43681;BME280;29281;50.356;30.894;2023-05-11T00:12:12;101039.60;;;9.25;42.50
43681;BME280;29281;50.356;30.894;2023-05-11T00:13:16;101039.75;;;9.22;42.32
43681;BME280;29281;50.356;30.894;2023-05-11T00:14:19;101042.72;;;9.15;42.54
43681;BME280;29281;50.356;30.894;2023-05-11T00:15:23;101041.86;;;9.15;42.72
43681;BME280;29281;50.356;30.894;2023-05-11T00:16:26;101046.91;;;9.20;42.75
43681;BME280;29281;50.356;30.894;2023-05-11T00:17:30;101045.27;;;9.17;42.66
43681;BME280;29281;50.356;30.894;2023-05-11T00:18:33;101043.58;;;9.16;42.58
43681;BME280;29281;50.356;30.894;2023-05-11T00:19:37;101039.34;;;9.12;42.97
43681;BME280;29281;50.356;30.894;2023-05-11T00:20:44;101039.42;;;9.10;42.74
43681;BME280;29281;50.356;30.894;2023-05-11T00:21:48;101038.28;;;9.16;42.44
43681;BME280;29281;50.356;30.894;2023-05-11T00:22:50;101043.58;;;9.16;42.46
43681;BME280;29281;50.356;30.894;2023-05-11T00:23:54;101045.37;;;9.15;42.47
43681;BME280;29281;50.356;30.894;2023-05-11T00:24:58;101041.07;;;9.13;42.54
43681;BME280;29281;50.356;30.894;2023-05-11T00:26:02;101046.72;;;9.05;42.88
43681;BME280;29281;50.356;30.894;2023-05-11T00:27:06;101041.35;;;9.07;42.91
43681;BME280;29281;50.356;30.894;2023-05-11T00:28:09;101041.49;;;9.04;42.93
43681;BME280;29281;50.356;30.894;2023-05-11T00:29:12;101039.63;;;9.06;42.75
43681;BME280;29281;50.356;30.894;2023-05-11T00:30:17;101045.94;;;9.03;42.80
43681;BME280;29281;50.356;30.894;2023-05-11T00:31:22;101043.14;;;9.06;42.72
43681;BME280;29281;50.356;30.894;2023-05-11T00:32:25;101038.84;;;9.04;42.83
43681;BME280;29281;50.356;30.894;2023-05-11T00:33:29;101034.34;;;9.06;43.54
43681;BME280;29281;50.356;30.894;2023-05-11T00:34:35;101040.42;;;9.08;44.12
43681;BME280;29281;50.356;30.894;2023-05-11T00:35:38;101036.05;;;9.07;45.71
43681;BME280;29281;50.356;30.894;2023-05-11T00:36:41;101034.19;;;9.09;45.16
43681;BME280;29281;50.356;30.894;2023-05-11T00:37:45;101037.98;;;9.03;44.64
43681;BME280;29281;50.356;30.894;2023-05-11T00:38:48;101042.35;;;9.04;44.46
43681;BME280;29281;50.356;30.894;2023-05-11T00:39:52;101041.49;;;9.04;44.65
43681;BME280;29281;50.356;30.894;2023-05-11T00:40:55;101042.42;;;9.03;44.75
43681;BME280;29281;50.356;30.894;2023-05-11T00:41:58;101038.16;;;9.00;45.08
43681;BME280;29281;50.356;30.894;2023-05-11T00:43:02;101040.09;;;8.97;45.27
43681;BME280;29281;50.356;30.894;2023-05-11T00:44:06;101041.02;;;8.96;45.70
43681;BME280;29281;50.356;30.894;2023-05-11T00:45:09;101042.81;;;8.95;45.72
43681;BME280;29281;50.356;30.894;2023-05-11T00:46:14;101033.21;;;8.93;45.91
43681;BME280;29281;50.356;30.894;2023-05-11T00:47:17;101041.68;;;8.82;46.57
43681;BME280;29281;50.356;30.894;2023-05-11T00:48:21;101035.52;;;8.81;46.04
43681;BME280;29281;50.356;30.894;2023-05-11T00:49:25;101033.80;;;8.80;45.49
43681;BME280;29281;50.356;30.894;2023-05-11T00:50:30;101038.17;;;8.81;45.74
43681;BME280;29281;50.356;30.894;2023-05-11T00:51:34;101038.31;;;8.78;45.87
43681;BME280;29281;50.356;30.894;2023-05-11T00:52:39;101032.08;;;8.79;45.79
43681;BME280;29281;50.356;30.894;2023-05-11T00:53:43;101032.08;;;8.79;46.29
43681;BME280;29281;50.356;30.894;2023-05-11T00:54:47;101036.52;;;8.79;45.85
43681;BME280;29281;50.356;30.894;2023-05-11T00:55:49;101034.94;;;8.75;45.14
43681;BME280;29281;50.356;30.894;2023-05-11T00:56:53;101037.52;;;8.76;45.25
43681;BME280;29281;50.356;30.894;2023-05-11T00:58:00;101033.08;;;8.77;47.15
43681;BME280;29281;50.356;30.894;2023-05-11T00:59:06;101028.85;;;8.73;46.21
43681;BME280;29281;50.356;30.894;2023-05-11T01:00:10;101029.02;;;8.70;44.91
43681;BME280;29281;50.356;30.894;2023-05-11T01:01:14;101036.11;;;8.69;45.57
43681;BME280;29281;50.356;30.894;2023-05-11T01:02:19;101036.17;;;8.68;45.69
43681;BME280;29281;50.356;30.894;2023-05-11T01:03:25;101033.59;;;8.66;46.16
43681;BME280;29281;50.356;30.894;2023-05-11T01:04:28;101034.22;;;8.71;47.00
43681;BME280;29281;50.356;30.894;2023-05-11T01:05:35;101033.36;;;8.71;47.57
43681;BME280;29281;50.356;30.894;2023-05-11T01:06:43;101036.17;;;8.68;46.00
43681;BME280;29281;50.356;30.894;2023-05-11T01:07:52;101037.17;;;8.65;46.24
43681;BME280;29281;50.356;30.894;2023-05-11T01:08:59;101028.23;;;8.68;46.43
43681;BME280;29281;50.356;30.894;2023-05-11T01:10:20;101030.22;;;8.63;45.62
43681;BME280;29281;50.356;30.894;2023-05-11T01:11:30;101030.22;;;8.63;45.60
43681;BME280;29281;50.356;30.894;2023-05-11T01:12:51;101038.16;;;8.63;45.39
43681;BME280;29281;50.356;30.894;2023-05-11T01:13:52;101027.58;;;8.63;45.11
43681;BME280;29281;50.356;30.894;2023-05-11T01:15:05;101027.50;;;8.64;46.88
43681;BME280;29281;50.356;30.894;2023-05-11T01:16:08;101031.80;;;8.67;47.01
43681;BME280;29281;50.356;30.894;2023-05-11T01:17:17;101030.88;;;8.68;46.82
43681;BME280;29281;50.356;30.894;2023-05-11T01:18:19;101033.80;;;8.62;45.62
43681;BME280;29281;50.356;30.894;2023-05-11T01:20:34;101039.38;;;8.37;45.46
43681;BME280;29281;50.356;30.894;2023-05-11T01:21:37;101034.58;;;8.45;45.54
43681;BME280;29281;50.356;30.894;2023-05-11T01:28:48;101042.02;;;8.37;45.71
43681;BME280;29281;50.356;30.894;2023-05-11T01:30:59;101041.66;;;8.44;45.51
43681;BME280;29281;50.356;30.894;2023-05-11T01:31:59;101050.59;;;8.42;45.80
43681;BME280;29281;50.356;30.894;2023-05-11T01:33:06;101041.09;;;8.38;45.66
43681;BME280;29281;50.356;30.894;2023-05-11T01:34:12;101042.09;;;8.35;46.24
43681;BME280;29281;50.356;30.894;2023-05-11T01:35:19;101043.51;;;8.42;45.73
43681;BME280;29281;50.356;30.894;2023-05-11T01:36:24;101050.45;;;8.45;45.80
43681;BME280;29281;50.356;30.894;2023-05-11T01:37:27;101039.87;;;8.45;45.79
43681;BME280;29281;50.356;30.894;2023-05-11T01:38:32;101043.73;;;8.38;45.98
43681;BME280;29281;50.356;30.894;2023-05-11T01:39:42;101050.59;;;8.42;46.08
43681;BME280;29281;50.356;30.894;2023-05-11T01:40:40;101044.67;;;8.37;46.17
43681;BME280;29281;50.356;30.894;2023-05-11T01:41:49;101038.58;;;8.35;46.44
43681;BME280;29281;50.356;30.894;2023-05-11T01:43:12;101042.22;;;8.32;46.71
43681;BME280;29281;50.356;30.894;2023-05-11T01:44:01;101042.55;;;8.25;46.79
43681;BME280;29281;50.356;30.894;2023-05-11T01:45:06;101046.81;;;8.27;46.25
43681;BME280;29281;50.356;30.894;2023-05-11T01:46:10;101038.81;;;8.29;46.46
43681;BME280;29281;50.356;30.894;2023-05-11T01:47:15;101048.67;;;8.25;46.65
43681;BME280;29281;50.356;30.894;2023-05-11T01:48:20;101039.80;;;8.26;46.89
43681;BME280;29281;50.356;30.894;2023-05-11T01:49:25;101041.52;;;8.27;46.57
43681;BME280;29281;50.356;30.894;2023-05-11T01:50:29;101048.54;;;8.28;46.50
43681;BME280;29281;50.356;30.894;2023-05-11T01:51:34;101038.81;;;8.29;46.38
43681;BME280;29281;50.356;30.894;2023-05-11T01:52:38;101038.94;;;8.26;46.65
43681;BME280;29281;50.356;30.894;2023-05-11T01:53:46;101039.61;;;8.31;46.60
43681;BME280;29281;50.356;30.894;2023-05-11T01:54:51;101043.24;;;8.28;46.73
43681;BME280;29281;50.356;30.894;2023-05-11T01:55:55;101041.45;;;8.29;46.72
43681;BME280;29281;50.356;30.894;2023-05-11T01:56:59;101046.66;;;8.32;47.17
43681;BME280;29281;50.356;30.894;2023-05-11T01:58:02;101039.61;;;8.31;47.79
43681;BME280;29281;50.356;30.894;2023-05-11T01:59:07;101041.23;;;8.35;48.41
43681;BME280;29281;50.356;30.894;2023-05-11T02:00:11;101030.64;;;8.35;48.38
43681;BME280;29281;50.356;30.894;2023-05-11T02:01:17;101038.75;;;8.30;48.38
43681;BME280;29281;50.356;30.894;2023-05-11T02:02:23;101037.95;;;8.28;49.15
43681;BME280;29281;50.356;30.894;2023-05-11T02:03:30;101047.17;;;8.20;47.81
43681;BME280;29281;50.356;30.894;2023-05-11T02:04:35;101040.17;;;7.98;48.84
43681;BME280;29281;50.356;30.894;2023-05-11T02:05:40;101042.38;;;7.89;48.69
43681;BME280;29281;50.356;30.894;2023-05-11T02:06:49;101034.31;;;7.92;48.75
43681;BME280;29281;50.356;30.894;2023-05-11T02:07:51;101037.02;;;7.90;48.34
43681;BME280;29281;50.356;30.894;2023-05-11T02:08:57;101028.48;;;8.04;47.96
43681;BME280;29281;50.356;30.894;2023-05-11T02:10:03;101037.94;;;8.09;49.18
43681;BME280;29281;50.356;30.894;2023-05-11T02:11:07;101036.05;;;8.11;49.35
43681;BME280;29281;50.356;30.894;2023-05-11T02:12:12;101037.78;;;8.12;49.02
43681;BME280;29281;50.356;30.894;2023-05-11T02:13:19;101042.27;;;8.10;48.33
43681;BME280;29281;50.356;30.894;2023-05-11T02:14:28;101036.28;;;8.07;47.78
43681;BME280;29281;50.356;30.894;2023-05-11T02:15:32;101039.12;;;8.02;47.83
43681;BME280;29281;50.356;30.894;2023-05-11T02:16:36;101043.68;;;7.99;47.76
43681;BME280;29281;50.356;30.894;2023-05-11T02:17:41;101038.67;;;7.93;47.89
43681;BME280;29281;50.356;30.894;2023-05-11T02:18:46;101045.08;;;7.87;48.00
43681;BME280;29281;50.356;30.894;2023-05-11T02:19:50;101040.72;;;7.86;47.95
43681;BME280;29281;50.356;30.894;2023-05-11T02:20:53;101043.23;;;7.89;47.95
43681;BME280;29281;50.356;30.894;2023-05-11T02:21:58;101034.31;;;7.92;47.82
43681;BME280;29281;50.356;30.894;2023-05-11T02:23:03;101040.30;;;7.95;47.86
43681;BME280;29281;50.356;30.894;2023-05-11T02:24:07;101044.03;;;7.91;47.89
43681;BME280;29281;50.356;30.894;2023-05-11T02:25:11;101041.03;;;7.99;47.71
43681;BME280;29281;50.356;30.894;2023-05-11T02:26:14;101039.98;;;8.03;47.61
43681;BME280;29281;50.356;30.894;2023-05-11T02:27:18;101050.37;;;8.07;47.46
43681;BME280;29281;50.356;30.894;2023-05-11T02:28:22;101039.92;;;8.04;47.57
43681;BME280;29281;50.356;30.894;2023-05-11T02:29:26;101043.30;;;8.08;47.48
43681;BME280;29281;50.356;30.894;2023-05-11T02:30:29;101049.95;;;8.17;47.54
43681;BME280;29281;50.356;30.894;2023-05-11T02:31:39;101048.23;;;8.16;47.33
43681;BME280;29281;50.356;30.894;2023-05-11T02:32:43;101045.59;;;8.16;47.23
43681;BME280;29281;50.356;30.894;2023-05-11T02:33:49;101048.36;;;8.12;47.38
43681;BME280;29281;50.356;30.894;2023-05-11T02:34:59;101044.06;;;8.10;47.33
43681;BME280;29281;50.356;30.894;2023-05-11T02:36:03;101044.66;;;8.17;47.12
43681;BME280;29281;50.356;30.894;2023-05-11T02:37:11;101048.60;;;8.27;47.30
43681;BME280;29281;50.356;30.894;2023-05-11T02:38:18;101048.54;;;8.28;47.91
43681;BME280;29281;50.356;30.894;2023-05-11T02:39:23;101048.23;;;8.16;48.22
43681;BME280;29281;50.356;30.894;2023-05-11T02:40:29;101058.02;;;8.13;48.14
43681;BME280;29281;50.356;30.894;2023-05-11T02:41:37;101056.65;;;8.05;48.71
43681;BME280;29281;50.356;30.894;2023-05-11T02:42:40;101054.99;;;8.02;48.56
43681;BME280;29281;50.356;30.894;2023-05-11T02:43:47;101051.86;;;8.13;48.43
43681;BME280;29281;50.356;30.894;2023-05-11T02:44:55;101060.91;;;8.28;47.94
43681;BME280;29281;50.356;30.894;2023-05-11T02:46:00;101056.31;;;8.33;49.10
43681;BME280;29281;50.356;30.894;2023-05-11T02:47:05;101052.67;;;8.35;47.88
43681;BME280;29281;50.356;30.894;2023-05-11T02:48:29;101046.95;;;8.44;48.44
43681;BME280;29281;50.356;30.894;2023-05-11T02:49:19;101052.17;;;8.46;48.51
43681;BME280;29281;50.356;30.894;2023-05-11T02:50:24;101051.05;;;8.52;47.99
43681;BME280;29281;50.356;30.894;2023-05-11T02:51:35;101052.05;;;8.49;47.68
43681;BME280;29281;50.356;30.894;2023-05-11T02:52:43;101061.27;;;8.59;47.66
43681;BME280;29281;50.356;30.894;2023-05-11T02:53:44;101063.65;;;8.65;47.58
43681;BME280;29281;50.356;30.894;2023-05-11T02:54:49;101068.74;;;8.70;46.92
43681;BME280;29281;50.356;30.894;2023-05-11T02:55:54;101067.30;;;8.63;47.24
43681;BME280;29281;50.356;30.894;2023-05-11T02:56:59;101067.95;;;8.68;48.08
43681;BME280;29281;50.356;30.894;2023-05-11T02:58:04;101060.28;;;8.80;47.63
43681;BME280;29281;50.356;30.894;2023-05-11T02:59:11;101061.56;;;8.91;46.32
43681;BME280;29281;50.356;30.894;2023-05-11T03:00:15;101060.42;;;8.96;45.75
43681;BME280;29281;50.356;30.894;2023-05-11T03:01:21;101061.42;;;8.94;45.65
43681;BME280;29281;50.356;30.894;2023-05-11T03:02:28;101061.69;;;9.06;45.42
43681;BME280;29281;50.356;30.894;2023-05-11T03:03:33;101060.77;;;9.07;45.40
43681;BME280;29281;50.356;30.894;2023-05-11T03:04:42;101064.53;;;9.21;45.33
43681;BME280;29281;50.356;30.894;2023-05-11T03:05:46;101060.81;;;9.25;45.05
43681;BME280;29281;50.356;30.894;2023-05-11T03:06:50;101061.09;;;9.18;45.06
43681;BME280;29281;50.356;30.894;2023-05-11T03:07:56;101058.11;;;9.07;45.75
43681;BME280;29281;50.356;30.894;2023-05-11T03:09:01;101065.34;;;9.04;45.85
43681;BME280;29281;50.356;30.894;2023-05-11T03:10:07;101068.06;;;9.02;45.96
43681;BME280;29281;50.356;30.894;2023-05-11T03:11:12;101067.98;;;9.04;46.02
43681;BME280;29281;50.356;30.894;2023-05-11T03:12:21;101071.22;;;9.10;45.58
43681;BME280;29281;50.356;30.894;2023-05-11T03:13:24;101066.39;;;9.18;45.29
43681;BME280;29281;50.356;30.894;2023-05-11T03:14:28;101065.18;;;9.26;46.43
43681;BME280;29281;50.356;30.894;2023-05-11T03:15:33;101067.61;;;9.30;45.57
43681;BME280;29281;50.356;30.894;2023-05-11T03:16:37;101059.20;;;9.39;45.75
43681;BME280;29281;50.356;30.894;2023-05-11T03:17:41;101061.06;;;9.37;45.52
43681;BME280;29281;50.356;30.894;2023-05-11T03:18:47;101075.39;;;9.33;45.46
43681;BME280;29281;50.356;30.894;2023-05-11T03:19:53;101072.06;;;9.30;45.45
43681;BME280;29281;50.356;30.894;2023-05-11T03:20:57;101076.33;;;9.32;45.62
43681;BME280;29281;50.356;30.894;2023-05-11T03:22:02;101075.56;;;9.30;45.57
43681;BME280;29281;50.356;30.894;2023-05-11T03:23:09;101078.97;;;9.32;45.26
43681;BME280;29281;50.356;30.894;2023-05-11T03:24:15;101076.71;;;9.25;45.63
43681;BME280;29281;50.356;30.894;2023-05-11T03:25:20;101078.43;;;9.26;45.66
43681;BME280;29281;50.356;30.894;2023-05-11T03:26:27;101075.13;;;9.21;46.32
43681;BME280;29281;50.356;30.894;2023-05-11T03:27:32;101079.72;;;9.17;46.19
43681;BME280;29281;50.356;30.894;2023-05-11T03:28:37;101084.87;;;9.20;46.06
43681;BME280;29281;50.356;30.894;2023-05-11T03:29:42;101082.41;;;9.34;45.95
43681;BME280;29281;50.356;30.894;2023-05-11T03:30:48;101077.61;;;9.42;45.53
43681;BME280;29281;50.356;30.894;2023-05-11T03:31:55;101080.33;;;9.41;45.53
43681;BME280;29281;50.356;30.894;2023-05-11T03:32:59;101075.67;;;9.46;45.46
43681;BME280;29281;50.356;30.894;2023-05-11T03:34:03;101077.78;;;9.57;45.20
43681;BME280;29281;50.356;30.894;2023-05-11T03:35:09;101077.71;;;9.58;45.06
43681;BME280;29281;50.356;30.894;2023-05-11T03:36:13;101081.30;;;9.57;45.04
43681;BME280;29281;50.356;30.894;2023-05-11T03:37:18;101078.57;;;9.59;45.45
43681;BME280;29281;50.356;30.894;2023-05-11T03:38:27;101081.69;;;9.67;45.53
43681;BME280;29281;50.356;30.894;2023-05-11T03:39:32;101073.50;;;9.71;45.60
43681;BME280;29281;50.356;30.894;2023-05-11T03:40:37;101080.98;;;9.80;45.14
43681;BME280;29281;50.356;30.894;2023-05-11T03:41:43;101086.52;;;9.93;45.11
43681;BME280;29281;50.356;30.894;2023-05-11T03:42:48;101085.36;;;9.99;44.86
43681;BME280;29281;50.356;30.894;2023-05-11T03:43:54;101084.20;;;10.04;44.58
43681;BME280;29281;50.356;30.894;2023-05-11T03:44:59;101091.04;;;10.08;44.11
43681;BME280;29281;50.356;30.894;2023-05-11T03:46:02;101089.43;;;10.06;44.56
43681;BME280;29281;50.356;30.894;2023-05-11T03:47:09;101088.38;;;10.08;44.59
43681;BME280;29281;50.356;30.894;2023-05-11T03:48:14;101082.58;;;10.19;44.38
43681;BME280;29281;50.356;30.894;2023-05-11T03:49:19;101090.54;;;10.19;44.50
43681;BME280;29281;50.356;30.894;2023-05-11T03:50:25;101088.41;;;10.26;44.60
43681;BME280;29281;50.356;30.894;2023-05-11T03:51:29;101086.45;;;10.29;44.49
43681;BME280;29281;50.356;30.894;2023-05-11T03:52:34;101088.33;;;10.27;44.77
43681;BME280;29281;50.356;30.894;2023-05-11T03:53:38;101086.06;;;10.37;44.92
43681;BME280;29281;50.356;30.894;2023-05-11T03:54:41;101092.16;;;10.39;44.54
43681;BME280;29281;50.356;30.894;2023-05-11T03:55:48;101089.62;;;10.53;44.54
43681;BME280;29281;50.356;30.894;2023-05-11T03:56:57;101092.79;;;10.60;45.03
43681;BME280;29281;50.356;30.894;2023-05-11T03:58:05;101092.89;;;10.74;45.08
43681;BME280;29281;50.356;30.894;2023-05-11T03:59:07;101097.81;;;10.81;44.14
43681;BME280;29281;50.356;30.894;2023-05-11T04:00:12;101095.49;;;10.91;44.43
43681;BME280;29281;50.356;30.894;2023-05-11T04:01:18;101093.45;;;11.12;43.90
43681;BME280;29281;50.356;30.894;2023-05-11T04:02:22;101103.06;;;11.30;43.88
43681;BME280;29281;50.356;30.894;2023-05-11T04:03:30;101092.68;;;11.25;43.98
43681;BME280;29281;50.356;30.894;2023-05-11T04:04:36;101095.58;;;11.37;43.38
43681;BME280;29281;50.356;30.894;2023-05-11T04:05:40;101098.67;;;11.45;42.61
43681;BME280;29281;50.356;30.894;2023-05-11T04:06:46;101097.33;;;11.68;42.81
43681;BME280;29281;50.356;30.894;2023-05-11T04:07:52;101096.20;;;11.87;42.72
43681;BME280;29281;50.356;30.894;2023-05-11T04:08:54;101100.63;;;12.03;42.31
43681;BME280;29281;50.356;30.894;2023-05-11T04:10:00;101107.78;;;12.16;42.21
43681;BME280;29281;50.356;30.894;2023-05-11T04:11:04;101106.24;;;12.12;42.65
43681;BME280;29281;50.356;30.894;2023-05-11T04:12:09;101101.83;;;11.97;42.58
43681;BME280;29281;50.356;30.894;2023-05-11T04:13:13;101105.77;;;12.06;42.67
43681;BME280;29281;50.356;30.894;2023-05-11T04:14:17;101107.53;;;11.91;42.96
43681;BME280;29281;50.356;30.894;2023-05-11T04:15:21;101105.30;;;12.13;42.12
43681;BME280;29281;50.356;30.894;2023-05-11T04:16:23;101104.34;;;12.14;41.85
43681;BME280;29281;50.356;30.894;2023-05-11T04:17:29;101106.94;;;12.30;41.55
43681;BME280;29281;50.356;30.894;2023-05-11T04:18:35;101108.58;;;12.47;41.42
43681;BME280;29281;50.356;30.894;2023-05-11T04:19:40;101108.67;;;12.45;41.56
43681;BME280;29281;50.356;30.894;2023-05-11T04:20:43;101109.25;;;12.36;41.72
43681;BME280;29281;50.356;30.894;2023-05-11T04:21:47;101111.05;;;12.36;41.70
43681;BME280;29281;50.356;30.894;2023-05-11T04:22:55;101113.22;;;12.29;41.96
43681;BME280;29281;50.356;30.894;2023-05-11T04:23:59;101112.16;;;12.17;41.79
43681;BME280;29281;50.356;30.894;2023-05-11T04:25:03;101121.00;;;12.18;42.22
43681;BME280;29281;50.356;30.894;2023-05-11T04:26:10;101118.34;;;12.18;41.85
43681;BME280;29281;50.356;30.894;2023-05-11T04:27:13;101118.96;;;12.07;41.42
43681;BME280;29281;50.356;30.894;2023-05-11T04:28:22;101115.37;;;12.22;41.46
43681;BME280;29281;50.356;30.894;2023-05-11T04:29:28;101129.77;;;12.20;41.44
43681;BME280;29281;50.356;30.894;2023-05-11T04:30:31;101127.48;;;12.28;41.30
43681;BME280;29281;50.356;30.894;2023-05-11T04:31:33;101123.52;;;12.35;41.06
43681;BME280;29281;50.356;30.894;2023-05-11T04:32:43;101120.77;;;12.51;40.98
43681;BME280;29281;50.356;30.894;2023-05-11T04:33:44;101114.95;;;12.44;41.42
43681;BME280;29281;50.356;30.894;2023-05-11T04:34:48;101122.00;;;12.59;40.67
43681;BME280;29281;50.356;30.894;2023-05-11T04:35:53;101116.39;;;12.64;40.87
43681;BME280;29281;50.356;30.894;2023-05-11T04:37:00;101121.81;;;12.62;40.68
43681;BME280;29281;50.356;30.894;2023-05-11T04:38:04;101122.00;;;12.59;40.73
43681;BME280;29281;50.356;30.894;2023-05-11T04:39:09;101122.09;;;12.86;41.07
43681;BME280;29281;50.356;30.894;2023-05-11T04:40:13;101123.12;;;12.84;40.48
43681;BME280;29281;50.356;30.894;2023-05-11T04:41:19;101122.86;;;12.74;40.61
43681;BME280;29281;50.356;30.894;2023-05-11T04:42:25;101121.05;;;12.46;40.64
43681;BME280;29281;50.356;30.894;2023-05-11T04:43:29;101119.22;;;12.32;41.00
43681;BME280;29281;50.356;30.894;2023-05-11T04:44:33;101123.78;;;12.30;41.57
43681;BME280;29281;50.356;30.894;2023-05-11T04:45:36;101124.48;;;12.48;41.37
43681;BME280;29281;50.356;30.894;2023-05-11T04:46:39;101120.28;;;12.44;41.30
43681;BME280;29281;50.356;30.894;2023-05-11T04:47:42;101117.16;;;12.52;40.85
43681;BME280;29281;50.356;30.894;2023-05-11T04:48:45;101120.47;;;12.55;41.10
43681;BME280;29281;50.356;30.894;2023-05-11T04:49:49;101117.25;;;12.79;41.35
43681;BME280;29281;50.356;30.894;2023-05-11T04:50:55;101120.27;;;13.01;40.75
43681;BME280;29281;50.356;30.894;2023-05-11T04:52:01;101119.13;;;13.19;40.73
43681;BME280;29281;50.356;30.894;2023-05-11T04:53:04;101122.46;;;13.23;40.41
43681;BME280;29281;50.356;30.894;2023-05-11T04:54:07;101118.65;;;13.27;40.25
43681;BME280;29281;50.356;30.894;2023-05-11T04:55:13;101124.52;;;13.32;40.31
43681;BME280;29281;50.356;30.894;2023-05-11T04:56:17;101119.95;;;13.34;40.64
43681;BME280;29281;50.356;30.894;2023-05-11T04:57:23;101121.33;;;13.54;40.37
43681;BME280;29281;50.356;30.894;2023-05-11T04:58:26;101125.29;;;13.61;40.14
43681;BME280;29281;50.356;30.894;2023-05-11T04:59:30;101124.33;;;13.62;39.38
43681;BME280;29281;50.356;30.894;2023-05-11T05:00:32;101122.16;;;13.81;39.86
43681;BME280;29281;50.356;30.894;2023-05-11T05:01:35;101122.82;;;13.85;39.24
43681;BME280;29281;50.356;30.894;2023-05-11T05:02:40;101126.65;;;13.81;39.05
43681;BME280;29281;50.356;30.894;2023-05-11T05:03:42;101125.32;;;14.00;38.62
43681;BME280;29281;50.356;30.894;2023-05-11T05:04:46;101120.30;;;14.08;38.38
43681;BME280;29281;50.356;30.894;2023-05-11T05:05:51;101131.92;;;13.95;38.13
43681;BME280;29281;50.356;30.894;2023-05-11T05:06:56;101125.05;;;14.30;38.00
43681;BME280;29281;50.356;30.894;2023-05-11T05:07:59;101121.56;;;14.81;36.96
43681;BME280;29281;50.356;30.894;2023-05-11T05:09:03;101123.59;;;14.77;37.29
43681;BME280;29281;50.356;30.894;2023-05-11T05:10:09;101119.52;;;14.71;36.92
43681;BME280;29281;50.356;30.894;2023-05-11T05:11:17;101121.44;;;14.69;36.90
43681;BME280;29281;50.356;30.894;2023-05-11T05:12:21;101129.88;;;14.89;36.23
43681;BME280;29281;50.356;30.894;2023-05-11T05:13:27;101129.20;;;15.10;36.30
43681;BME280;29281;50.356;30.894;2023-05-11T05:14:30;101135.17;;;15.14;36.24
43681;BME280;29281;50.356;30.894;2023-05-11T05:15:34;101130.16;;;15.46;35.91
43681;BME280;29281;50.356;30.894;2023-05-11T05:16:36;101132.83;;;15.46;35.28
43681;BME280;29281;50.356;30.894;2023-05-11T05:17:40;101124.80;;;15.46;35.36
43681;BME280;29281;50.356;30.894;2023-05-11T05:18:42;101128.94;;;15.63;34.98
43681;BME280;29281;50.356;30.894;2023-05-11T05:19:47;101130.52;;;15.89;34.42
43681;BME280;29281;50.356;30.894;2023-05-11T05:20:49;101126.76;;;15.92;34.87
43681;BME280;29281;50.356;30.894;2023-05-11T05:21:53;101133.11;;;16.37;33.98
43681;BME280;29281;50.356;30.894;2023-05-11T05:22:56;101129.64;;;16.12;34.27
43681;BME280;29281;50.356;30.894;2023-05-11T05:24:04;101129.88;;;16.09;34.26
43681;BME280;29281;50.356;30.894;2023-05-11T05:25:09;101128.28;;;16.07;34.33
43681;BME280;29281;50.356;30.894;2023-05-11T05:26:14;101129.44;;;15.92;34.52
43681;BME280;29281;50.356;30.894;2023-05-11T05:27:19;101128.93;;;16.22;34.39
43681;BME280;29281;50.356;30.894;2023-05-11T05:28:25;101129.05;;;16.20;34.39
43681;BME280;29281;50.356;30.894;2023-05-11T05:29:29;101134.47;;;16.42;34.07
43681;BME280;29281;50.356;30.894;2023-05-11T05:30:33;101127.59;;;16.73;33.54
43681;BME280;29281;50.356;30.894;2023-05-11T05:31:38;101132.44;;;17.35;32.37
43681;BME280;29281;50.356;30.894;2023-05-11T05:32:42;101129.58;;;18.65;30.75
43681;BME280;29281;50.356;30.894;2023-05-11T05:33:46;101131.30;;;19.36;29.82
43681;BME280;29281;50.356;30.894;2023-05-11T05:34:49;101138.61;;;19.64;29.37
43681;BME280;29281;50.356;30.894;2023-05-11T05:35:54;101131.48;;;19.04;29.33
43681;BME280;29281;50.356;30.894;2023-05-11T05:37:00;101139.76;;;19.91;28.86
43681;BME280;29281;50.356;30.894;2023-05-11T05:38:06;101136.77;;;20.23;27.84
43681;BME280;29281;50.356;30.894;2023-05-11T05:39:09;101143.98;;;20.32;27.80
43681;BME280;29281;50.356;30.894;2023-05-11T05:40:15;101148.34;;;21.08;26.86
43681;BME280;29281;50.356;30.894;2023-05-11T05:41:21;101144.88;;;20.42;27.72
43681;BME280;29281;50.356;30.894;2023-05-11T05:42:25;101150.25;;;20.52;27.32
43681;BME280;29281;50.356;30.894;2023-05-11T05:43:28;101146.41;;;20.54;27.72
43681;BME280;29281;50.356;30.894;2023-05-11T05:44:32;101150.95;;;22.18;26.61
43681;BME280;29281;50.356;30.894;2023-05-11T05:45:36;101144.48;;;24.23;24.34